地図

経路データ

SID SEASON NUMBER BASIN SUBBASIN NAME ISO_TIME NATURE LAT LON WMO_WIND WMO_PRES WMO_AGENCY TRACK_TYPE DIST2LAND LANDFALL IFLAG USA_AGENCY USA_ATCF_ID USA_LAT USA_LON USA_RECORD USA_STATUS USA_WIND USA_PRES USA_SSHS USA_R34_NE USA_R34_SE USA_R34_SW USA_R34_NW USA_R50_NE USA_R50_SE USA_R50_SW USA_R50_NW USA_R64_NE USA_R64_SE USA_R64_SW USA_R64_NW USA_POCI USA_ROCI USA_RMW USA_EYE TOKYO_LAT TOKYO_LON TOKYO_GRADE TOKYO_WIND TOKYO_PRES TOKYO_R50_DIR TOKYO_R50_LONG TOKYO_R50_SHORT TOKYO_R30_DIR TOKYO_R30_LONG TOKYO_R30_SHORT TOKYO_LAND CMA_LAT CMA_LON CMA_CAT CMA_WIND CMA_PRES HKO_LAT HKO_LON HKO_CAT HKO_WIND HKO_PRES NEWDELHI_LAT NEWDELHI_LON NEWDELHI_GRADE NEWDELHI_WIND NEWDELHI_PRES NEWDELHI_CI NEWDELHI_DP NEWDELHI_POCI REUNION_LAT REUNION_LON REUNION_TYPE REUNION_WIND REUNION_PRES REUNION_TNUM REUNION_CI REUNION_RMW REUNION_R34_NE REUNION_R34_SE REUNION_R34_SW REUNION_R34_NW REUNION_R50_NE REUNION_R50_SE REUNION_R50_SW REUNION_R50_NW REUNION_R64_NE REUNION_R64_SE REUNION_R64_SW REUNION_R64_NW BOM_LAT BOM_LON BOM_TYPE BOM_WIND BOM_PRES BOM_TNUM BOM_CI BOM_RMW BOM_R34_NE BOM_R34_SE BOM_R34_SW BOM_R34_NW BOM_R50_NE BOM_R50_SE BOM_R50_SW BOM_R50_NW BOM_R64_NE BOM_R64_SE BOM_R64_SW BOM_R64_NW BOM_ROCI BOM_POCI BOM_EYE BOM_POS_METHOD BOM_PRES_METHOD NADI_LAT NADI_LON NADI_CAT NADI_WIND NADI_PRES WELLINGTON_LAT WELLINGTON_LON WELLINGTON_WIND WELLINGTON_PRES DS824_LAT DS824_LON DS824_STAGE DS824_WIND DS824_PRES TD9636_LAT TD9636_LON TD9636_STAGE TD9636_WIND TD9636_PRES TD9635_LAT TD9635_LON TD9635_WIND TD9635_PRES TD9635_ROCI NEUMANN_LAT NEUMANN_LON NEUMANN_CLASS NEUMANN_WIND NEUMANN_PRES MLC_LAT MLC_LON MLC_CLASS MLC_WIND MLC_PRES USA_GUST BOM_GUST BOM_GUST_PER REUNION_GUST REUNION_GUST_PER USA_SEAHGT USA_SEARAD_NE USA_SEARAD_SE USA_SEARAD_SW USA_SEARAD_NW STORM_SPEED STORM_DIR
1894242N13325 1894 36 NA NA NOT_NAMED 1894-08-30 00:00:00 TS 13.2000 -34.8000 35 hurdat_atl main 1874 1874 O____________O hurdat_atl AL031894 13.2000 -34.8000 TS 35 0 13.2000 -34.8000 TD 30 11 280
1894242N13325 1894 36 NA NA NOT_NAMED 1894-08-30 03:00:00 TS 13.3000 -35.3625 main 1878 1870 P____________P AL031894 13.3000 -35.3625 TS 35 0 13.3000 -35.3625 TD 30 12 280
1894242N13325 1894 36 NA NA NOT_NAMED 1894-08-30 06:00:00 TS 13.4000 -36.0000 35 hurdat_atl main 1873 1866 O____________O hurdat_atl AL031894 13.4000 -36.0000 TS 35 0 13.4000 -36.0000 TD 30 14 278
1894242N13325 1894 36 NA NA NOT_NAMED 1894-08-30 09:00:00 TS 13.5002 -36.7500 main 1869 1838 P____________P AL031894 13.5002 -36.7500 TS 37 0 13.5002 -36.7500 TD 30 15 278
1894242N13325 1894 36 NA NA NOT_NAMED 1894-08-30 12:00:00 TS 13.6000 -37.5000 40 hurdat_atl main 1838 1791 O____________O hurdat_atl AL031894 13.6000 -37.5000 TS 40 0 13.6000 -37.5000 TD 30 14 279
1894242N13325 1894 36 NA NA NOT_NAMED 1894-08-30 15:00:00 TS 13.6997 -38.1226 main 1791 1745 P____________P AL031894 13.6997 -38.1226 TS 40 0 13.6997 -38.1226 TD 30 12 280
1894242N13325 1894 36 NA NA NOT_NAMED 1894-08-30 18:00:00 TS 13.8000 -38.7000 40 hurdat_atl main 1745 1700 O____________O hurdat_atl AL031894 13.8000 -38.7000 TS 40 0 13.8000 -38.7000 TD 30 12 280
1894242N13325 1894 36 NA NA NOT_NAMED 1894-08-30 21:00:00 TS 13.8999 -39.3001 main 1700 1656 P____________P AL031894 13.8999 -39.3001 TS 42 0 13.8999 -39.3001 TD 30 12 280
1894242N13325 1894 36 NA NA NOT_NAMED 1894-08-31 00:00:00 TS 14.0000 -39.9000 45 hurdat_atl main 1656 1615 O____________O hurdat_atl AL031894 14.0000 -39.9000 TS 45 0 14.0000 -39.9000 TD 30 12 280
1894242N13325 1894 36 NA NA NOT_NAMED 1894-08-31 03:00:00 TS 14.0999 -40.5000 main 1615 1575 P____________P AL031894 14.0999 -40.5000 TS 45 0 14.0999 -40.5000 TD 30 12 280
1894242N13325 1894 36 NA NA NOT_NAMED 1894-08-31 06:00:00 TS 14.2000 -41.1000 45 hurdat_atl main 1575 1537 O____________O hurdat_atl AL031894 14.2000 -41.1000 TS 45 0 14.2000 -41.1000 TD 30 12 279
1894242N13325 1894 36 NA NA NOT_NAMED 1894-08-31 09:00:00 TS 14.2923 -41.7001 main 1537 1501 P____________P AL031894 14.2923 -41.7001 TS 45 0 14.2923 -41.7001 TD 30 12 280
1894242N13325 1894 36 NA NA NOT_NAMED 1894-08-31 12:00:00 TS 14.4000 -42.3000 45 hurdat_atl main 1501 1467 O____________O hurdat_atl AL031894 14.4000 -42.3000 TS 45 0 14.4000 -42.3000 TD 30 12 282
1894242N13325 1894 36 NA NA NOT_NAMED 1894-08-31 15:00:00 TS 14.5498 -42.9000 main 1467 1444 P____________P AL031894 14.5498 -42.9000 TS 47 0 14.5498 -42.9000 TD 30 12 284
1894242N13325 1894 36 NA NA NOT_NAMED 1894-08-31 18:00:00 TS 14.7000 -43.5000 50 hurdat_atl main 1444 1416 O____________O hurdat_atl AL031894 14.7000 -43.5000 TS 50 0 14.7000 -43.5000 TD 30 12 282
1894242N13325 1894 36 NA NA NOT_NAMED 1894-08-31 21:00:00 TS 14.7999 -44.1077 main 1416 1388 P____________P AL031894 14.7999 -44.1077 TS 50 0 14.7999 -44.1077 TD 32 12 280
1894242N13325 1894 36 NA NA NOT_NAMED 1894-09-01 00:00:00 TS 14.9000 -44.7000 50 hurdat_atl main 1388 1363 O____________O hurdat_atl AL031894 14.9000 -44.7000 TS 50 0 14.9000 -44.7000 TS 35 11 281
1894242N13325 1894 36 NA NA NOT_NAMED 1894-09-01 03:00:00 TS 15.0198 -45.2502 main 1357 1344 P____________P AL031894 15.0198 -45.2502 TS 52 0 15.0198 -45.2502 TS 35 11 286
1894242N13325 1894 36 NA NA NOT_NAMED 1894-09-01 06:00:00 TS 15.2000 -45.8000 55 hurdat_atl main 1344 1333 O____________O hurdat_atl AL031894 15.2000 -45.8000 TS 55 0 15.2000 -45.8000 TS 35 12 292
1894242N13325 1894 36 NA NA NOT_NAMED 1894-09-01 09:00:00 TS 15.4699 -46.3925 main 1337 1330 P____________P AL031894 15.4699 -46.3925 TS 55 0 15.4699 -46.3925 TS 35 13 297
1894242N13325 1894 36 NA NA NOT_NAMED 1894-09-01 12:00:00 TS 15.8000 -47.0000 55 hurdat_atl main 1335 1330 O____________O hurdat_atl AL031894 15.8000 -47.0000 TS 55 0 15.8000 -47.0000 TS 35 13 300
1894242N13325 1894 36 NA NA NOT_NAMED 1894-09-01 15:00:00 TS 16.1423 -47.5927 main 1336 1336 P____________P AL031894 16.1423 -47.5927 TS 57 0 16.1423 -47.5927 TS 35 14 301
1894242N13325 1894 36 NA NA NOT_NAMED 1894-09-01 18:00:00 TS 16.5000 -48.2000 60 hurdat_atl main 1350 1346 O____________O hurdat_atl AL031894 16.5000 -48.2000 TS 60 0 16.5000 -48.2000 TS 35 14 301
1894242N13325 1894 36 NA NA NOT_NAMED 1894-09-01 21:00:00 TS 16.8499 -48.8427 main 1354 1354 P____________P AL031894 16.8499 -48.8427 TS 62 0 16.8499 -48.8427 TS 37 14 299
1894242N13325 1894 36 NA NA NOT_NAMED 1894-09-02 00:00:00 TS 17.2000 -49.5000 65 hurdat_atl main 1364 1360 O____________O hurdat_atl AL031894 17.2000 -49.5000 HU 65 1 17.2000 -49.5000 TS 40 14 299
1894242N13325 1894 36 NA NA NOT_NAMED 1894-09-02 03:00:00 TS 17.5498 -50.1502 main 1369 1362 P____________P AL031894 17.5498 -50.1502 HU 65 1 17.5498 -50.1502 TS 40 14 299
1894242N13325 1894 36 NA NA NOT_NAMED 1894-09-02 06:00:00 TS 17.9000 -50.8000 65 hurdat_atl main 1362 1331 O____________O hurdat_atl AL031894 17.9000 -50.8000 HU 65 1 17.9000 -50.8000 TS 40 14 299
1894242N13325 1894 36 NA NA NOT_NAMED 1894-09-02 09:00:00 TS 18.2499 -51.4577 main 1323 1302 P____________P AL031894 18.2499 -51.4577 HU 67 1 18.2499 -51.4577 TS 40 14 300
1894242N13325 1894 36 NA NA NOT_NAMED 1894-09-02 12:00:00 TS 18.6000 -52.1000 70 hurdat_atl main 1302 1279 O____________O hurdat_atl AL031894 18.6000 -52.1000 HU 70 1 18.6000 -52.1000 TS 40 14 301
1894242N13325 1894 36 NA NA NOT_NAMED 1894-09-02 15:00:00 TS 18.9497 -52.7078 main 1279 1267 P____________P AL031894 18.9497 -52.7078 HU 72 1 18.9497 -52.7078 TS 40 13 302
1894242N13325 1894 36 NA NA NOT_NAMED 1894-09-02 18:00:00 TS 19.3000 -53.3000 75 hurdat_atl main 1268 1237 O____________O hurdat_atl AL031894 19.3000 -53.3000 HU 75 1 19.3000 -53.3000 TS 40 13 302
1894242N13325 1894 36 NA NA NOT_NAMED 1894-09-02 21:00:00 TS 19.6499 -53.9151 main 1237 1179 P____________P AL031894 19.6499 -53.9152 HU 75 1 19.6499 -53.9152 TS 42 13 302
1894242N13325 1894 36 NA NA NOT_NAMED 1894-09-03 00:00:00 TS 20.0000 -54.5000 75 hurdat_atl main 1179 1131 O____________O hurdat_atl AL031894 20.0000 -54.5000 HU 75 1 20.0000 -54.5000 TS 45 13 304
1894242N13325 1894 36 NA NA NOT_NAMED 1894-09-03 03:00:00 TS 20.3498 -55.0228 main 1131 1088 P____________P AL031894 20.3498 -55.0228 HU 77 1 20.3498 -55.0228 TS 45 12 307
1894242N13325 1894 36 NA NA NOT_NAMED 1894-09-03 06:00:00 TS 20.7000 -55.5000 80 hurdat_atl main 1088 1056 O____________O hurdat_atl AL031894 20.7000 -55.5000 HU 80 1 20.7000 -55.5000 TS 45 11 308
1894242N13325 1894 36 NA NA NOT_NAMED 1894-09-03 09:00:00 TS 21.0499 -55.9726 main 1045 1018 P____________P AL031894 21.0499 -55.9726 HU 80 1 21.0499 -55.9726 TS 45 11 310
1894242N13325 1894 36 NA NA NOT_NAMED 1894-09-03 12:00:00 TS 21.4000 -56.4000 80 hurdat_atl main 1018 990 O____________O hurdat_atl AL031894 21.4000 -56.4000 HU 80 1 21.4000 -56.4000 TS 45 10 313
1894242N13325 1894 36 NA NA NOT_NAMED 1894-09-03 15:00:00 TS 21.7574 -56.7801 main 994 973 P____________P AL031894 21.7574 -56.7801 HU 82 1 21.7574 -56.7801 TS 45 10 317
1894242N13325 1894 36 NA NA NOT_NAMED 1894-09-03 18:00:00 TS 22.1000 -57.1000 85 hurdat_atl main 978 964 O____________O hurdat_atl AL031894 22.1000 -57.1000 HU 85 2 22.1000 -57.1000 TS 45 8 319
1894242N13325 1894 36 NA NA NOT_NAMED 1894-09-03 21:00:00 TS 22.3999 -57.3727 main 964 956 P____________P AL031894 22.3999 -57.3727 HU 85 2 22.3999 -57.3727 TS 47 8 322
1894242N13325 1894 36 NA NA NOT_NAMED 1894-09-04 00:00:00 TS 22.7000 -57.6000 85 hurdat_atl main 961 957 O____________O hurdat_atl AL031894 22.7000 -57.6000 HU 85 2 22.7000 -57.6000 TS 50 8 328
1894242N13325 1894 36 NA NA NOT_NAMED 1894-09-04 03:00:00 TS 23.0499 -57.8076 main 960 957 P____________P AL031894 23.0499 -57.8076 HU 85 2 23.0499 -57.8076 TS 52 8 332
1894242N13325 1894 36 NA NA NOT_NAMED 1894-09-04 06:00:00 TS 23.4000 -58.0000 85 hurdat_atl main 966 962 O____________O hurdat_atl AL031894 23.4000 -58.0000 HU 85 2 23.4000 -58.0000 TS 55 7 331
1894242N13325 1894 36 NA NA NOT_NAMED 1894-09-04 09:00:00 TS 23.6924 -58.1953 main 969 966 P____________P AL031894 23.7000 -58.2002 HU 85 2 23.6774 -58.1854 TS 57 7 329
1894242N13325 1894 36 NA NA NOT_NAMED 1894-09-04 12:00:00 TS 24.0000 -58.4000 85 hurdat_atl main 973 972 O____________O hurdat_atl AL031894 24.0000 -58.4000 HU 85 2 24.0000 -58.4000 TS 60 8 330
1894242N13325 1894 36 NA NA NOT_NAMED 1894-09-04 15:00:00 TS 24.3850 -58.6284 main 987 979 P____________P AL031894 24.3425 -58.6001 HU 85 2 24.4700 -58.6849 TS 60 9 332
1894242N13325 1894 36 NA NA NOT_NAMED 1894-09-04 18:00:00 TS 24.8000 -58.8667 85 hurdat_atl main 995 995 O____________O hurdat_atl AL031894 24.7000 -58.8000 HU 85 2 25.0000 -59.0000 TS 60 9 332
1894242N13325 1894 36 NA NA NOT_NAMED 1894-09-04 21:00:00 TS 25.2000 -59.1051 main 1013 1013 P____________P AL031894 25.0500 -59.0075 HU 85 2 25.4999 -59.3002 TS 62 9 332
1894242N13325 1894 36 NA NA NOT_NAMED 1894-09-05 00:00:00 TS 25.6000 -59.3333 85 hurdat_atl main 1033 1027 O____________O hurdat_atl AL031894 25.4000 -59.2000 HU 85 2 26.0000 -59.6000 HU 65 9 334
1894242N13325 1894 36 NA NA NOT_NAMED 1894-09-05 03:00:00 TS 26.0000 -59.5435 main 1055 1049 P____________P AL031894 25.7500 -59.3651 HU 85 2 26.4999 -59.9003 HU 67 9 336
1894242N13325 1894 36 NA NA NOT_NAMED 1894-09-05 06:00:00 TS 26.4000 -59.7333 85 hurdat_atl main 1080 1074 O____________O hurdat_atl AL031894 26.1000 -59.5000 HU 85 2 27.0000 -60.2000 HU 70 9 337
1894242N13325 1894 36 NA NA NOT_NAMED 1894-09-05 09:00:00 TS 26.8000 -59.9299 main 1105 1105 P____________P AL031894 26.4425 -59.6225 HU 85 2 27.5151 -60.5446 HU 72 9 339
1894242N13325 1894 36 NA NA NOT_NAMED 1894-09-05 12:00:00 TS 27.2000 -60.0667 85 hurdat_atl main 1133 1133 O____________O hurdat_atl AL031894 26.8000 -59.7000 HU 85 2 28.0000 -60.8000 HU 75 8 349
1894242N13325 1894 36 NA NA NOT_NAMED 1894-09-05 15:00:00 TS 27.6024 -60.1142 main 1171 1171 P____________P AL031894 27.1925 -59.7300 HU 85 2 28.4223 -60.8827 HU 77 8 1
1894242N13325 1894 36 NA NA NOT_NAMED 1894-09-05 18:00:00 TS 28.0000 -60.0667 85 hurdat_atl main 1210 1210 O____________O hurdat_atl AL031894 27.6000 -59.7000 HU 85 2 28.8000 -60.8000 HU 80 8 11
1894242N13325 1894 36 NA NA NOT_NAMED 1894-09-05 21:00:00 TS 28.3809 -59.9442 main 1259 1259 P____________P AL031894 27.9925 -59.6225 HU 87 2 29.1576 -60.5877 HU 82 8 19
1894242N13325 1894 36 NA NA NOT_NAMED 1894-09-06 00:00:00 TS 28.7667 -59.7667 90 hurdat_atl main 1303 1303 O____________O hurdat_atl AL031894 28.4000 -59.5000 HU 90 2 29.5000 -60.3000 HU 85 9 21
1894242N13325 1894 36 NA NA NOT_NAMED 1894-09-06 03:00:00 TS 29.1833 -59.6006 main 1351 1351 P____________P AL031894 28.8500 -59.3649 HU 92 2 29.8498 -60.0721 HU 87 9 21
1894242N13325 1894 36 NA NA NOT_NAMED 1894-09-06 06:00:00 TS 29.6000 -59.4000 95 hurdat_atl main 1400 1400 O____________O hurdat_atl AL031894 29.3000 -59.2000 HU 95 2 30.2000 -59.8000 HU 90 9 25
1894242N13325 1894 36 NA NA NOT_NAMED 1894-09-06 09:00:00 TS 29.9882 -59.1655 main 1448 1448 P____________P AL031894 29.7075 -59.0148 HU 97 3 30.5495 -59.4669 HU 92 9 31
1894242N13325 1894 36 NA NA NOT_NAMED 1894-09-06 12:00:00 TS 30.3667 -58.8667 100 hurdat_atl main 1501 1501 O____________O hurdat_atl AL031894 30.1000 -58.8000 HU 100 3 30.9000 -59.0000 HU 95 10 38
1894242N13325 1894 36 NA NA NOT_NAMED 1894-09-06 15:00:00 TS 30.7476 -58.4890 main 1546 1518 P____________P AL031894 30.4924 -58.5647 HU 100 3 31.2579 -58.3377 HU 97 10 42
1894242N13325 1894 36 NA NA NOT_NAMED 1894-09-06 18:00:00 TS 31.1333 -58.0667 100 hurdat_atl main 1518 1492 O____________O hurdat_atl AL031894 30.9000 -58.3000 HU 100 3 31.6000 -57.6000 MH 100 11 42
1894242N13325 1894 36 NA NA NOT_NAMED 1894-09-06 21:00:00 TS 31.5281 -57.6645 main 1492 1468 P____________P AL031894 31.3424 -58.0222 HU 100 3 31.8994 -56.9491 MH 100 11 42
1894242N13325 1894 36 NA NA NOT_NAMED 1894-09-07 00:00:00 TS 31.9333 -57.2333 100 hurdat_atl main 1472 1445 O____________O hurdat_atl AL031894 31.8000 -57.7000 HU 100 3 32.2000 -56.3000 MH 100 11 43
1894242N13325 1894 36 NA NA NOT_NAMED 1894-09-07 03:00:00 TS 32.3499 -56.7481 main 1454 1429 P____________P AL031894 32.2499 -57.3222 HU 100 3 32.5499 -55.6000 MH 100 12 45
1894242N13325 1894 36 NA NA NOT_NAMED 1894-09-07 06:00:00 TS 32.7667 -56.2333 100 hurdat_atl main 1429 1415 O____________O hurdat_atl AL031894 32.7000 -56.9000 HU 100 3 32.9000 -54.9000 MH 100 11 47
1894242N13325 1894 36 NA NA NOT_NAMED 1894-09-07 09:00:00 TS 33.1382 -55.7597 main 1420 1390 P____________P AL031894 33.1347 -56.4716 HU 100 3 33.1450 -54.3358 MH 100 11 43
1894242N13325 1894 36 NA NA NOT_NAMED 1894-09-07 12:00:00 TS 33.5727 -55.3455 100 hurdat_atl main 1382 1342 O____________O hurdat_atl AL031894 33.6000 -56.0000 HU 100 3 33.5000 -53.6000 MH 100 12 37
1894242N13325 1894 36 NA NA NOT_NAMED 1894-09-07 15:00:00 TS 34.1119 -54.8731 main 1342 1295 P____________P AL031894 34.1045 -55.4934 HU 100 3 34.1131 -52.4052 MH 100 14 32
1894242N13325 1894 36 NA NA NOT_NAMED 1894-09-07 18:00:00 TS 34.7222 -54.4667 100 hurdat_atl main 1295 1235 O____________O hurdat_atl AL031894 34.7000 -54.9000 HU 100 3 34.9000 -51.0000 MH 100 14 23
1894242N13325 1894 36 NA NA NOT_NAMED 1894-09-07 21:00:00 TS 35.3972 -54.2011 main 1235 1156 P____________P AL031894 35.3972 -54.2011 HU 100 3 35.6608 -49.7225 MH 17 30
1894242N13325 1894 36 NA NA NOT_NAMED 1894-09-08 00:00:00 TS 36.2000 -53.4000 100 948 hurdat_atl main 1156 1068 O____________P hurdat_atl AL031894 36.2000 -53.4000 HU 100 948 3 36.4808 -48.4714 MH 21 39
1894242N13325 1894 36 NA NA NOT_NAMED 1894-09-08 03:00:00 TS 37.0620 -52.5356 main 1058 975 P____________P AL031894 37.0620 -52.5356 HU 100 3 37.3635 -47.2484 MH 23 39
1894242N13325 1894 36 NA NA NOT_NAMED 1894-09-08 06:00:00 TS 38.0000 -51.6000 100 hurdat_atl main 965 879 O____________P hurdat_atl AL031894 38.0000 -51.6000 HU 100 3 38.3130 -46.0548 MH 24 38
1894242N13325 1894 36 NA NA NOT_NAMED 1894-09-08 09:00:00 TS 38.9615 -50.6337 main 871 796 P____________P AL031894 38.9615 -50.6337 HU 100 3 39.3336 -44.8914 MH 25 38
1894242N13325 1894 36 NA NA NOT_NAMED 1894-09-08 12:00:00 TS 40.0000 -49.6000 100 hurdat_atl main 788 722 O____________P hurdat_atl AL031894 40.0000 -49.6000 HU 100 3 40.4298 -43.7588 MH 27 37
1894242N13325 1894 36 NA NA NOT_NAMED 1894-09-08 15:00:00 TS 41.0960 -48.5040 main 717 670 P____________P AL031894 41.0960 -48.5040 HU 95 2 41.6067 -42.6571 MH 29 37
1894242N13325 1894 36 NA NA NOT_NAMED 1894-09-08 18:00:00 TS 42.3000 -47.3000 90 hurdat_atl main 667 651 O____________P hurdat_atl AL031894 42.3000 -47.3000 HU 90 2 42.8696 -41.5864 MH 31 37
1894242N13325 1894 36 NA NA NOT_NAMED 1894-09-08 21:00:00 TS 43.5966 -45.9543 main 651 651 P____________P AL031894 43.5966 -45.9543 HU 85 2 44.2243 -40.5461 MH 34 37
1894242N13325 1894 36 NA NA NOT_NAMED 1894-09-09 00:00:00 TS 45.0000 -44.5000 80 hurdat_atl main 679 679 O____________P hurdat_atl AL031894 45.0000 -44.5000 HU 80 1 45.6768 -39.5357 MH 38 40
1894242N13325 1894 36 NA NA NOT_NAMED 1894-09-09 03:00:00 TS 46.5152 -42.4897 main 770 770 P____________P AL031894 46.4532 -42.9857 HU 77 1 47.2332 -38.5541 MH 41 40
1894242N13325 1894 36 NA NA NOT_NAMED 1894-09-09 06:00:00 TS 48.1800 -40.6400 75 hurdat_atl main 893 893 O____________O hurdat_atl AL031894 48.0000 -41.4000 HU 75 1 48.9000 -37.6000 HU 75 42 35
1894242N13325 1894 36 NA NA NOT_NAMED 1894-09-09 09:00:00 TS 49.9755 -38.8427 main 1035 1007 P____________P AL031894 49.6739 -39.6456 HU 72 1 50.7582 -36.7089 HU 72 41 32
1894242N13325 1894 36 NA NA NOT_NAMED 1894-09-09 12:00:00 TS 51.7000 -37.2333 70 hurdat_atl main 998 893 O____________O hurdat_atl AL031894 51.3000 -38.0000 HU 70 1 52.5000 -35.7000 HU 70 36 30
1894242N13325 1894 36 NA NA NOT_NAMED 1894-09-09 15:00:00 TS 53.1116 -35.9714 main 886 807 P____________P AL031894 52.7164 -36.7337 HU 70 1 53.9090 -34.4440 HU 70 30 29
1894242N13325 1894 36 NA NA NOT_NAMED 1894-09-09 18:00:00 MX 54.3667 -34.8000 70 hurdat_atl main 801 O____________O hurdat_atl AL031894 54.0000 -35.7000 EX 70 -4 55.1000 -33.0000 HU 70 29 29

IBTrACS Databaseについて

本データベースは、米国NOAAが公開する1842年以降の世界の熱帯低気圧のベストトラックデータアーカイブInternational Best Track Archive for Climate Stewardship (IBTrACS)を、ウェブで閲覧しやすい形式に変換したものです。

最終更新日:2021-10-25